Aérodrome :
LOGIN :

S'inscrire | Disclaimer

   EN    FR    IT 

 










Légende :    VFR   VFR Marginal   IFR   IFR Intensif   IFR Très Intensif
Visi : 
Plafond : 
>= 8 km
>= 3000ft
5 à 8 km
1000 à 3000 ft
1500m à 5 km
500 à 1000 ft
800 à 1500m
200 à 500 ft
< 800m
< 200 ft
Symboles :   Orages  Brouillard  Fortes neiges  Fortes précipitations  Vent > 20 kt
SIGMETs :   Divers  Orages  Givrage  Turbulence  Onde Orograph.  Cendres Volcan.






- Altitude de l'aérodrome : 125 ft
- Code IATA : MGL


EDLN - Mönchengladbach

DERNIER METAR :
  • 281820Z 35011KT CAVOK 09/01 Q1023

METARs EXPIRÉS :
  • 281750Z 36012KT CAVOK 10/02 Q1022
  • 281720Z 35011KT 330V030 CAVOK 11/00 Q1022
  • 281650Z 35016KT CAVOK 12/00 Q1021
  • 281620Z 36013KT 330V030 CAVOK 13/M01 Q1021
  • 281550Z 01011KT 340V040 CAVOK 13/01 Q1021

TAF TAF EDLN
Valide du 28 à 18h jusqu'au 29 à 03h UTC


281700Z 2818/2903 36013KT 9999 FEW040
BECMG 2818/2821 34008KT



MET'MAP, la Météo Aéronautique d'un coup d'oeil ! - Copyright ORBIFLY Décembre 2007 - Disclaimer

ORBIFLY MET'MAP TEAM :

Programmation & Développement : Alexandra Zaïnal
Sur une idée originale de : Baudouin d'Aumeries
Assistance à la programmation : Marc-Olivier Méhu
Soutien technique & logistique : Manuel Goepfert

Contact : metmap@orbifly.com




SOURCES & CREDITS :

   NOAA